Global Endeavor — 3EOJ9 — position and weather

sailwx.info

Track history (hours):
 
Tides and Currents Weather Stations Pressure Air Temp Water Temp Dewpoint Dewpoint Depression Visibility Wind Speed Wind Dir Waves Ship Positions

Global Endeavor

Last reported at 2017-Sep-15 21:23 UTC. Time now 2017-Sep-24 07:07 UTC.
Position N 23°57' W 113°50'.
Warning: this ship's position is 8 days out of date.

Length 175 m; draft 6.7 m.

Type: Cargo ship. MMSI: 356619000.

Date/timePositionNaut miles runAvg speedWind from/ knotsBaromVisibWave heightAir tempDewpointWater temp
2017-Sep-15 21:23N 23°57' W 113°50'410.2
2017-Sep-15 21:00N 23°55' W 113°46'  
2017-Sep-07 23:03N 27°24' W 117°53'112.8
2017-Sep-07 22:56N 27°25' W 117°54'2311.5
2017-Sep-07 20:57N 27°40' W 118°14'511.7
2017-Sep-07 20:29N 27°44' W 118°19'611.8
2017-Sep-07 19:59N 27°48' W 118°24'612.0
2017-Sep-07 19:30N 27°51' W 118°28'1611.9
2017-Sep-07 18:12N 28°02' W 118°42'211.8
2017-Sep-07 18:00N 28°03' W 118°44'611.8
2017-Sep-07 17:30N 28°07' W 118°49'611.8
2017-Sep-07 17:00N 28°11' W 118°54'911.7
2017-Sep-07 16:16N 28°16' W 119°01'311.8
2017-Sep-07 15:59N 28°19' W 119°04'1211.8
2017-Sep-07 14:58N 28°26' W 119°15'1611.8
2017-Sep-07 13:35N 28°36' W 119°29'111.9
2017-Sep-07 13:30N 28°37' W 119°30'612.0
2017-Sep-07 13:00N 28°41' W 119°35'611.9
2017-Sep-07 12:30N 28°45' W 119°40'611.9
2017-Sep-07 11:58N 28°49' W 119°46'512.0
2017-Sep-07 11:30N 28°52' W 119°51'612.0
2017-Sep-07 11:00N 28°56' W 119°56'611.9
2017-Sep-07 10:28N 28°60' W 120°02'611.9
2017-Sep-07 10:00N 29°03' W 120°07'612.0
2017-Sep-07 09:30N 29°07' W 120°13'612.2
2017-Sep-07 09:00N 29°11' W 120°18'612.3
2017-Sep-07 08:30N 29°15' W 120°23'712.3
2017-Sep-07 07:57N 29°19' W 120°29'612.1
2017-Sep-07 07:26N 29°23' W 120°35'512.2
2017-Sep-07 07:00N 29°26' W 120°40'612.0
2017-Sep-07 06:29N 29°30' W 120°45'611.9
2017-Sep-07 06:00N 29°34' W 120°50'611.9
2017-Sep-07 05:30N 29°37' W 120°56'612.1
2017-Sep-07 05:00N 29°41' W 121°01'611.9
2017-Sep-07 04:30N 29°45' W 121°06'612.0
2017-Sep-07 04:00N 29°49' W 121°12'612.0
2017-Sep-07 03:30N 29°53' W 121°17'612.0
2017-Sep-07 03:00N 29°56' W 121°23'612.1
2017-Sep-07 02:30N 30°00' W 121°28'1011.8
2017-Sep-07 01:38N 30°06' W 121°37'211.7
2017-Sep-07 01:26N 30°08' W 121°40'4812.8
2017-Sep-06 21:41N 30°39' W 122°21'412.4
2017-Sep-06 21:21N 30°42' W 122°25'512.3
2017-Sep-06 20:57N 30°46' W 122°29'1012.3
2017-Sep-06 20:07N 30°53' W 122°37'112.1
2017-Sep-06 20:00N 30°54' W 122°38'612.1
2017-Sep-06 19:30N 30°58' W 122°43'712.0
2017-Sep-06 18:58N 31°03' W 122°49'2412.0
2017-Sep-06 16:55N 31°19' W 123°10'511.6
2017-Sep-06 16:30N 31°23' W 123°14'1111.6
2017-Sep-06 15:34N 31°30' W 123°23'111.2
2017-Sep-06 15:30N 31°31' W 123°24'611.3
2017-Sep-06 15:00N 31°35' W 123°28'811.4
2017-Sep-06 14:20N 31°40' W 123°35'1811.5
2017-Sep-06 12:47N 31°53' W 123°50'411.4
2017-Sep-06 12:28N 31°55' W 123°53'511.6
2017-Sep-06 12:00N 31°59' W 123°57'47 3.3
2017-Sep-05 21:34N 32°43' W 124°19'0 2.1
2017-Sep-05 21:30N 32°43' W 124°19'  
Track history (hours):
 
Tides and Currents Weather Stations Pressure Air Temp Water Temp Dewpoint Dewpoint Depression Visibility Wind Speed Wind Dir Waves Ship Positions

Global Endeavor

Last reported at 2017-Sep-15 21:23 UTC. Time now 2017-Sep-24 07:07 UTC.
Position N 23°57' W 113°50'.
Warning: this ship's position is 8 days out of date.

Length 175 m; draft 6.7 m.

Type: Cargo ship. MMSI: 356619000.

Date/timePositionNaut miles runAvg speedWind from/ knotsBaromVisibWave heightAir tempDewpointWater temp
2017-Sep-15 21:23N 23°57' W 113°50'410.2
2017-Sep-15 21:00N 23°55' W 113°46'  
2017-Sep-07 23:03N 27°24' W 117°53'112.8
2017-Sep-07 22:56N 27°25' W 117°54'2311.5
2017-Sep-07 20:57N 27°40' W 118°14'511.7
2017-Sep-07 20:29N 27°44' W 118°19'611.8
2017-Sep-07 19:59N 27°48' W 118°24'612.0
2017-Sep-07 19:30N 27°51' W 118°28'1611.9
2017-Sep-07 18:12N 28°02' W 118°42'211.8
2017-Sep-07 18:00N 28°03' W 118°44'611.8
2017-Sep-07 17:30N 28°07' W 118°49'611.8
2017-Sep-07 17:00N 28°11' W 118°54'911.7
2017-Sep-07 16:16N 28°16' W 119°01'311.8
2017-Sep-07 15:59N 28°19' W 119°04'1211.8
2017-Sep-07 14:58N 28°26' W 119°15'1611.8
2017-Sep-07 13:35N 28°36' W 119°29'111.9
2017-Sep-07 13:30N 28°37' W 119°30'612.0
2017-Sep-07 13:00N 28°41' W 119°35'611.9
2017-Sep-07 12:30N 28°45' W 119°40'611.9
2017-Sep-07 11:58N 28°49' W 119°46'512.0
2017-Sep-07 11:30N 28°52' W 119°51'612.0
2017-Sep-07 11:00N 28°56' W 119°56'611.9
2017-Sep-07 10:28N 28°60' W 120°02'611.9
2017-Sep-07 10:00N 29°03' W 120°07'612.0
2017-Sep-07 09:30N 29°07' W 120°13'612.2
2017-Sep-07 09:00N 29°11' W 120°18'612.3
2017-Sep-07 08:30N 29°15' W 120°23'712.3
2017-Sep-07 07:57N 29°19' W 120°29'612.1
2017-Sep-07 07:26N 29°23' W 120°35'512.2
2017-Sep-07 07:00N 29°26' W 120°40'612.0
2017-Sep-07 06:29N 29°30' W 120°45'611.9
2017-Sep-07 06:00N 29°34' W 120°50'611.9
2017-Sep-07 05:30N 29°37' W 120°56'612.1
2017-Sep-07 05:00N 29°41' W 121°01'611.9
2017-Sep-07 04:30N 29°45' W 121°06'612.0
2017-Sep-07 04:00N 29°49' W 121°12'612.0
2017-Sep-07 03:30N 29°53' W 121°17'612.0
2017-Sep-07 03:00N 29°56' W 121°23'612.1
2017-Sep-07 02:30N 30°00' W 121°28'1011.8
2017-Sep-07 01:38N 30°06' W 121°37'211.7
2017-Sep-07 01:26N 30°08' W 121°40'4812.8
2017-Sep-06 21:41N 30°39' W 122°21'412.4
2017-Sep-06 21:21N 30°42' W 122°25'512.3
2017-Sep-06 20:57N 30°46' W 122°29'1012.3
2017-Sep-06 20:07N 30°53' W 122°37'112.1
2017-Sep-06 20:00N 30°54' W 122°38'612.1
2017-Sep-06 19:30N 30°58' W 122°43'712.0
2017-Sep-06 18:58N 31°03' W 122°49'2412.0
2017-Sep-06 16:55N 31°19' W 123°10'511.6
2017-Sep-06 16:30N 31°23' W 123°14'1111.6
2017-Sep-06 15:34N 31°30' W 123°23'111.2
2017-Sep-06 15:30N 31°31' W 123°24'611.3
2017-Sep-06 15:00N 31°35' W 123°28'811.4
2017-Sep-06 14:20N 31°40' W 123°35'1811.5
2017-Sep-06 12:47N 31°53' W 123°50'411.4
2017-Sep-06 12:28N 31°55' W 123°53'511.6
2017-Sep-06 12:00N 31°59' W 123°57'47 3.3
2017-Sep-05 21:34N 32°43' W 124°19'0 2.1
2017-Sep-05 21:30N 32°43' W 124°19'  

Dump ship's entire track history